Pagina principale
METAR-TAF:

METAR-TAF

Aeroporti :

Aeroporto Internazionale del Cairo

Il Cairo, Egitto

latitudine: 30-08N, longitudine: 031-24E, altezza: 64 m

Osservazione

Il bollettino è stato emesso 26 minuti fa, alle 23:30 UTC
Vento 11 kt da nord/nord-est
Temperature 19°C
Umidità 60%
Pressione 1018 hPa
Visibilità 10 km o più
nessuna nube inferiore a 1500 m e nessun cumulonembo

METAR: HECA 292330Z 03011KT CAVOK 19/11 Q1018 NOSIG

Ora: 01:56 (23:56 UTC)

Previsione

Il bollettino è stato emesso 56 minuti fa, alle 23:00 UTC
Previsione valida dal 30 alle 00 UTC al 31 alle 06 UTC
Vento 12 kt da nord/nord-est
Visibilità 10 km o più
Poco nuvoloso ad un'altezza di 2500 ft
Temporaneamente
dal 30 alle 02 UTC al 30 alle 06 UTC
Vento 3 kt da direzioni variabili

TAF: HECA 292300Z 3000/3106 03012KT 9999 FEW025 TEMPO 3002/3006 VRB03KT 4000BR NSC

Osservazioni e previsioni meteorologiche di più di 4000 aeroporti (messaggi METAR e TAF).

Le stazioni disponibili sono rappresentate dai dischi gialli e rossi sulla carta.

Puntare il mouse per vedere il nome della stazione.

Clicca sopra per visualizzare le osservazioni e previsioni meteorologiche.

Per cambiare la mappa : fare clic sui pulsanti verdi con una croce nera per ingrandire, il pulsante verde con un trattino per diminuire, o sulla freccia verde per le mappe adiacenti.


METAR-TAF: